ボードー の空港の天気 - METARとTAF

Bodo Vi ( ENBO / BOO ) - ノルウェー ヌールラン県ボードー
飛行場実況気象(Metar)
観測時間10/22 16:50 CEST (10/22 14:50 UTC)
風向・風速東 2m/s
視程10km以上
天気現象
少しの雲 雲底高度 370m
全天の4割程度の雲 雲底高度 1830m
気温1℃
湿度69%
気圧999hPa
METARENBO 221450Z 09004KT 9999 FEW012 SCT060 01/M04 Q0999 NOSIG
過去の天気等 Google飛行場航空写真 Wunderground天気予報

過去48時間のMETAR

飛行場予報(TAF)
発表時間: -
22日21時 CEST ~ 23日14時 CEST に一時的に
少しの積乱雲 雲底高度 460m
全天の8割程度の雲 雲底高度 610m
23日0時 CEST ~ 23日14時 CEST に一時的に
視程3000m
天気現象しゅう雨雪
全天を覆う雲 鉛直視程 300m
23日0時 CEST ~ 23日2時 CEST に徐々に
風向・風速西北西 8m/s
23日7時 CEST ~ 23日13時 CEST に一時的に
風向・風速北西 8m/s 瞬間風速 13m/s
TAF ENBO 2212/2312 10008KT 9999 FEW020 BKN070
TEMPO 2219/2312 FEW015CB BKN020
TEMPO 2222/2312 3000 SHRASN VV010
BECMG 2222/2224 30015KT
TEMPO 2305/2311 31015G25KT